sensor_id;sensor_type;location;lat;lon;timestamp;P1;durP1;ratioP1;P2;durP2;ratioP2
75016;SDS011;63577;39.766;2.720;2023-01-08T00:01:55;7.90;;;3.50;;
75016;SDS011;63577;39.766;2.720;2023-01-08T00:04:20;16.50;;;10.60;;
75016;SDS011;63577;39.766;2.720;2023-01-08T00:06:46;29.00;;;15.50;;
75016;SDS011;63577;39.766;2.720;2023-01-08T00:09:11;29.90;;;15.50;;
75016;SDS011;63577;39.766;2.720;2023-01-08T00:11:37;9.70;;;4.70;;
75016;SDS011;63577;39.766;2.720;2023-01-08T00:14:02;17.80;;;11.70;;
75016;SDS011;63577;39.766;2.720;2023-01-08T00:16:28;6.70;;;3.60;;
75016;SDS011;63577;39.766;2.720;2023-01-08T00:18:53;29.60;;;19.30;;
75016;SDS011;63577;39.766;2.720;2023-01-08T00:21:18;78.20;;;36.90;;
75016;SDS011;63577;39.766;2.720;2023-01-08T00:23:44;32.10;;;20.30;;
75016;SDS011;63577;39.766;2.720;2023-01-08T00:26:10;24.10;;;13.30;;
75016;SDS011;63577;39.766;2.720;2023-01-08T00:28:36;9.80;;;4.10;;
75016;SDS011;63577;39.766;2.720;2023-01-08T00:31:02;28.80;;;17.40;;
75016;SDS011;63577;39.766;2.720;2023-01-08T00:33:28;10.00;;;6.40;;
75016;SDS011;63577;39.766;2.720;2023-01-08T00:35:53;10.40;;;6.10;;
75016;SDS011;63577;39.766;2.720;2023-01-08T00:38:18;8.00;;;3.40;;
75016;SDS011;63577;39.766;2.720;2023-01-08T00:40:44;22.30;;;12.00;;
75016;SDS011;63577;39.766;2.720;2023-01-08T00:43:09;11.50;;;5.70;;
75016;SDS011;63577;39.766;2.720;2023-01-08T00:45:35;12.30;;;8.90;;
75016;SDS011;63577;39.766;2.720;2023-01-08T00:48:00;11.20;;;6.00;;
75016;SDS011;63577;39.766;2.720;2023-01-08T00:50:26;10.60;;;5.80;;
75016;SDS011;63577;39.766;2.720;2023-01-08T00:52:51;5.50;;;2.80;;
75016;SDS011;63577;39.766;2.720;2023-01-08T00:55:16;5.30;;;2.70;;
75016;SDS011;63577;39.766;2.720;2023-01-08T00:57:42;6.90;;;2.70;;
75016;SDS011;63577;39.766;2.720;2023-01-08T01:00:08;4.80;;;2.60;;
75016;SDS011;63577;39.766;2.720;2023-01-08T01:02:35;5.20;;;2.70;;
75016;SDS011;63577;39.766;2.720;2023-01-08T01:05:01;6.40;;;2.50;;
75016;SDS011;63577;39.766;2.720;2023-01-08T01:07:26;6.10;;;2.90;;
75016;SDS011;63577;39.766;2.720;2023-01-08T01:09:51;7.00;;;2.90;;
75016;SDS011;63577;39.766;2.720;2023-01-08T01:12:17;7.90;;;3.00;;
75016;SDS011;63577;39.766;2.720;2023-01-08T01:14:42;6.00;;;2.80;;
75016;SDS011;63577;39.766;2.720;2023-01-08T01:17:09;5.90;;;3.10;;
75016;SDS011;63577;39.766;2.720;2023-01-08T01:19:34;6.40;;;3.10;;
75016;SDS011;63577;39.766;2.720;2023-01-08T01:22:00;18.10;;;13.20;;
75016;SDS011;63577;39.766;2.720;2023-01-08T01:24:25;36.40;;;19.70;;
75016;SDS011;63577;39.766;2.720;2023-01-08T01:26:51;18.60;;;12.60;;
75016;SDS011;63577;39.766;2.720;2023-01-08T01:29:17;15.50;;;10.90;;
75016;SDS011;63577;39.766;2.720;2023-01-08T01:31:42;9.10;;;5.50;;
75016;SDS011;63577;39.766;2.720;2023-01-08T01:34:08;5.80;;;3.60;;
75016;SDS011;63577;39.766;2.720;2023-01-08T01:36:33;9.70;;;6.40;;
75016;SDS011;63577;39.766;2.720;2023-01-08T01:38:59;10.90;;;8.10;;
75016;SDS011;63577;39.766;2.720;2023-01-08T01:41:37;9.30;;;5.70;;
75016;SDS011;63577;39.766;2.720;2023-01-08T01:46:47;7.50;;;3.40;;
75016;SDS011;63577;39.766;2.720;2023-01-08T01:49:17;7.50;;;4.00;;
75016;SDS011;63577;39.766;2.720;2023-01-08T01:52:00;5.60;;;2.70;;
75016;SDS011;63577;39.766;2.720;2023-01-08T01:54:28;7.10;;;4.00;;
75016;SDS011;63577;39.766;2.720;2023-01-08T01:56:55;8.80;;;5.00;;
75016;SDS011;63577;39.766;2.720;2023-01-08T01:59:20;6.00;;;3.50;;
75016;SDS011;63577;39.766;2.720;2023-01-08T02:01:46;6.20;;;2.90;;
75016;SDS011;63577;39.766;2.720;2023-01-08T02:04:12;5.50;;;2.50;;
75016;SDS011;63577;39.766;2.720;2023-01-08T02:07:02;5.50;;;2.40;;
75016;SDS011;63577;39.766;2.720;2023-01-08T02:09:38;7.70;;;3.20;;
75016;SDS011;63577;39.766;2.720;2023-01-08T02:12:07;9.00;;;3.80;;
75016;SDS011;63577;39.766;2.720;2023-01-08T02:14:47;8.70;;;3.50;;
75016;SDS011;63577;39.766;2.720;2023-01-08T02:17:15;6.70;;;2.80;;
75016;SDS011;63577;39.766;2.720;2023-01-08T02:22:30;4.60;;;2.20;;
75016;SDS011;63577;39.766;2.720;2023-01-08T02:27:22;11.80;;;6.00;;
75016;SDS011;63577;39.766;2.720;2023-01-08T02:29:48;6.10;;;2.80;;
75016;SDS011;63577;39.766;2.720;2023-01-08T02:32:14;6.80;;;3.40;;
75016;SDS011;63577;39.766;2.720;2023-01-08T02:34:40;5.90;;;3.00;;
75016;SDS011;63577;39.766;2.720;2023-01-08T02:37:06;6.10;;;2.10;;
75016;SDS011;63577;39.766;2.720;2023-01-08T02:42:22;5.40;;;2.40;;
75016;SDS011;63577;39.766;2.720;2023-01-08T02:47:28;5.80;;;2.20;;
75016;SDS011;63577;39.766;2.720;2023-01-08T02:52:33;14.20;;;8.10;;
75016;SDS011;63577;39.766;2.720;2023-01-08T02:55:00;8.40;;;4.10;;
75016;SDS011;63577;39.766;2.720;2023-01-08T02:57:27;6.40;;;3.10;;
75016;SDS011;63577;39.766;2.720;2023-01-08T02:59:53;8.50;;;3.60;;
75016;SDS011;63577;39.766;2.720;2023-01-08T03:02:19;27.30;;;13.00;;
75016;SDS011;63577;39.766;2.720;2023-01-08T03:04:50;28.30;;;13.10;;
75016;SDS011;63577;39.766;2.720;2023-01-08T03:07:17;50.90;;;21.30;;
75016;SDS011;63577;39.766;2.720;2023-01-08T03:09:43;11.60;;;6.40;;
75016;SDS011;63577;39.766;2.720;2023-01-08T03:12:20;13.70;;;6.50;;
75016;SDS011;63577;39.766;2.720;2023-01-08T03:17:41;25.50;;;11.50;;
75016;SDS011;63577;39.766;2.720;2023-01-08T03:20:06;13.60;;;5.90;;
75016;SDS011;63577;39.766;2.720;2023-01-08T03:22:32;7.40;;;3.40;;
75016;SDS011;63577;39.766;2.720;2023-01-08T03:24:59;13.40;;;6.10;;
75016;SDS011;63577;39.766;2.720;2023-01-08T03:27:27;8.90;;;3.10;;
75016;SDS011;63577;39.766;2.720;2023-01-08T03:29:54;9.50;;;4.60;;
75016;SDS011;63577;39.766;2.720;2023-01-08T03:32:20;5.50;;;2.40;;
75016;SDS011;63577;39.766;2.720;2023-01-08T03:34:47;5.90;;;2.70;;
75016;SDS011;63577;39.766;2.720;2023-01-08T03:37:13;5.60;;;2.70;;
75016;SDS011;63577;39.766;2.720;2023-01-08T03:39:44;5.50;;;2.40;;
75016;SDS011;63577;39.766;2.720;2023-01-08T03:42:11;11.60;;;5.80;;
75016;SDS011;63577;39.766;2.720;2023-01-08T03:44:37;6.70;;;3.50;;
75016;SDS011;63577;39.766;2.720;2023-01-08T03:47:03;7.10;;;3.50;;
75016;SDS011;63577;39.766;2.720;2023-01-08T03:49:29;8.00;;;3.70;;
75016;SDS011;63577;39.766;2.720;2023-01-08T03:51:55;6.20;;;3.10;;
75016;SDS011;63577;39.766;2.720;2023-01-08T03:54:22;5.70;;;2.40;;
75016;SDS011;63577;39.766;2.720;2023-01-08T03:56:48;5.10;;;2.20;;
75016;SDS011;63577;39.766;2.720;2023-01-08T03:59:14;4.80;;;2.30;;
75016;SDS011;63577;39.766;2.720;2023-01-08T04:01:40;6.00;;;2.80;;
75016;SDS011;63577;39.766;2.720;2023-01-08T04:04:05;4.90;;;2.60;;
75016;SDS011;63577;39.766;2.720;2023-01-08T04:06:31;5.80;;;2.00;;
75016;SDS011;63577;39.766;2.720;2023-01-08T04:08:56;6.50;;;2.40;;
75016;SDS011;63577;39.766;2.720;2023-01-08T04:11:22;5.30;;;2.20;;
75016;SDS011;63577;39.766;2.720;2023-01-08T04:13:47;5.60;;;2.40;;
75016;SDS011;63577;39.766;2.720;2023-01-08T04:16:12;5.10;;;2.20;;
75016;SDS011;63577;39.766;2.720;2023-01-08T04:18:38;5.80;;;2.20;;
75016;SDS011;63577;39.766;2.720;2023-01-08T04:21:03;10.40;;;4.60;;
75016;SDS011;63577;39.766;2.720;2023-01-08T04:23:28;7.60;;;4.10;;
75016;SDS011;63577;39.766;2.720;2023-01-08T04:25:54;6.30;;;2.60;;
75016;SDS011;63577;39.766;2.720;2023-01-08T04:28:19;4.60;;;2.20;;
75016;SDS011;63577;39.766;2.720;2023-01-08T04:30:45;5.60;;;2.10;;
75016;SDS011;63577;39.766;2.720;2023-01-08T04:33:10;4.30;;;2.20;;
75016;SDS011;63577;39.766;2.720;2023-01-08T04:35:36;7.00;;;3.40;;
75016;SDS011;63577;39.766;2.720;2023-01-08T04:38:01;7.90;;;4.20;;
75016;SDS011;63577;39.766;2.720;2023-01-08T04:40:26;7.50;;;2.70;;
75016;SDS011;63577;39.766;2.720;2023-01-08T04:42:52;7.00;;;3.90;;
75016;SDS011;63577;39.766;2.720;2023-01-08T04:45:17;7.60;;;2.80;;
75016;SDS011;63577;39.766;2.720;2023-01-08T04:47:43;6.10;;;3.40;;
75016;SDS011;63577;39.766;2.720;2023-01-08T04:50:08;4.10;;;2.00;;
75016;SDS011;63577;39.766;2.720;2023-01-08T04:52:34;6.00;;;1.90;;
75016;SDS011;63577;39.766;2.720;2023-01-08T04:54:59;4.50;;;2.10;;
75016;SDS011;63577;39.766;2.720;2023-01-08T04:57:24;5.50;;;1.80;;
75016;SDS011;63577;39.766;2.720;2023-01-08T04:59:50;5.10;;;2.10;;
75016;SDS011;63577;39.766;2.720;2023-01-08T05:02:15;5.40;;;2.30;;
75016;SDS011;63577;39.766;2.720;2023-01-08T05:04:40;5.50;;;2.50;;
75016;SDS011;63577;39.766;2.720;2023-01-08T05:07:06;6.00;;;2.10;;
75016;SDS011;63577;39.766;2.720;2023-01-08T05:09:32;6.30;;;2.50;;
75016;SDS011;63577;39.766;2.720;2023-01-08T05:11:57;7.10;;;2.60;;
75016;SDS011;63577;39.766;2.720;2023-01-08T05:14:22;7.40;;;2.50;;
75016;SDS011;63577;39.766;2.720;2023-01-08T05:16:48;5.90;;;2.50;;
75016;SDS011;63577;39.766;2.720;2023-01-08T05:19:13;6.40;;;2.50;;
75016;SDS011;63577;39.766;2.720;2023-01-08T05:21:39;4.40;;;2.10;;
75016;SDS011;63577;39.766;2.720;2023-01-08T05:24:04;5.20;;;2.10;;
75016;SDS011;63577;39.766;2.720;2023-01-08T05:26:30;6.50;;;2.50;;
75016;SDS011;63577;39.766;2.720;2023-01-08T05:28:56;3.90;;;1.90;;
75016;SDS011;63577;39.766;2.720;2023-01-08T05:31:21;4.50;;;1.80;;
75016;SDS011;63577;39.766;2.720;2023-01-08T05:33:47;4.70;;;2.00;;
75016;SDS011;63577;39.766;2.720;2023-01-08T05:36:12;4.40;;;1.90;;
75016;SDS011;63577;39.766;2.720;2023-01-08T05:38:38;4.50;;;1.90;;
75016;SDS011;63577;39.766;2.720;2023-01-08T05:41:04;6.60;;;3.00;;
75016;SDS011;63577;39.766;2.720;2023-01-08T05:43:30;5.10;;;2.60;;
75016;SDS011;63577;39.766;2.720;2023-01-08T05:45:59;4.90;;;2.30;;
75016;SDS011;63577;39.766;2.720;2023-01-08T05:48:25;7.30;;;2.80;;
75016;SDS011;63577;39.766;2.720;2023-01-08T05:50:51;5.80;;;2.60;;
75016;SDS011;63577;39.766;2.720;2023-01-08T05:53:16;7.80;;;2.70;;
75016;SDS011;63577;39.766;2.720;2023-01-08T05:55:41;5.60;;;2.60;;
75016;SDS011;63577;39.766;2.720;2023-01-08T05:58:07;5.50;;;2.50;;
75016;SDS011;63577;39.766;2.720;2023-01-08T06:00:34;5.90;;;2.40;;
75016;SDS011;63577;39.766;2.720;2023-01-08T06:02:59;6.30;;;3.00;;
75016;SDS011;63577;39.766;2.720;2023-01-08T06:05:25;7.30;;;3.00;;
75016;SDS011;63577;39.766;2.720;2023-01-08T06:07:50;7.30;;;2.50;;
75016;SDS011;63577;39.766;2.720;2023-01-08T06:10:16;6.60;;;2.80;;
75016;SDS011;63577;39.766;2.720;2023-01-08T06:12:41;6.10;;;2.90;;
75016;SDS011;63577;39.766;2.720;2023-01-08T06:15:07;6.70;;;2.70;;
75016;SDS011;63577;39.766;2.720;2023-01-08T06:17:33;6.80;;;2.20;;
75016;SDS011;63577;39.766;2.720;2023-01-08T06:19:58;5.80;;;2.60;;
75016;SDS011;63577;39.766;2.720;2023-01-08T06:22:24;7.20;;;2.20;;
75016;SDS011;63577;39.766;2.720;2023-01-08T06:24:49;6.60;;;2.30;;
75016;SDS011;63577;39.766;2.720;2023-01-08T06:27:14;8.50;;;2.30;;
75016;SDS011;63577;39.766;2.720;2023-01-08T06:29:40;6.40;;;2.10;;
75016;SDS011;63577;39.766;2.720;2023-01-08T06:32:05;7.10;;;2.90;;
75016;SDS011;63577;39.766;2.720;2023-01-08T06:34:30;7.30;;;2.50;;
75016;SDS011;63577;39.766;2.720;2023-01-08T06:36:56;6.70;;;2.30;;
75016;SDS011;63577;39.766;2.720;2023-01-08T06:39:21;7.10;;;2.50;;
75016;SDS011;63577;39.766;2.720;2023-01-08T06:41:46;7.20;;;2.70;;
75016;SDS011;63577;39.766;2.720;2023-01-08T06:44:12;9.00;;;3.00;;
75016;SDS011;63577;39.766;2.720;2023-01-08T06:46:37;9.00;;;2.50;;
75016;SDS011;63577;39.766;2.720;2023-01-08T06:49:08;7.70;;;2.90;;
75016;SDS011;63577;39.766;2.720;2023-01-08T06:51:33;8.00;;;2.40;;
75016;SDS011;63577;39.766;2.720;2023-01-08T06:53:59;8.20;;;2.40;;
75016;SDS011;63577;39.766;2.720;2023-01-08T06:56:24;8.30;;;2.40;;
75016;SDS011;63577;39.766;2.720;2023-01-08T06:58:49;6.50;;;2.20;;
75016;SDS011;63577;39.766;2.720;2023-01-08T07:01:15;7.50;;;2.10;;
75016;SDS011;63577;39.766;2.720;2023-01-08T07:03:41;6.40;;;2.20;;
75016;SDS011;63577;39.766;2.720;2023-01-08T07:06:11;5.80;;;1.80;;
75016;SDS011;63577;39.766;2.720;2023-01-08T07:08:37;5.60;;;2.10;;
75016;SDS011;63577;39.766;2.720;2023-01-08T07:11:03;6.50;;;1.90;;
75016;SDS011;63577;39.766;2.720;2023-01-08T07:13:28;8.30;;;2.10;;
75016;SDS011;63577;39.766;2.720;2023-01-08T07:15:54;4.60;;;1.40;;
75016;SDS011;63577;39.766;2.720;2023-01-08T07:18:20;3.60;;;1.60;;
75016;SDS011;63577;39.766;2.720;2023-01-08T07:20:46;4.80;;;1.80;;
75016;SDS011;63577;39.766;2.720;2023-01-08T07:23:12;4.60;;;1.30;;
75016;SDS011;63577;39.766;2.720;2023-01-08T07:25:37;4.60;;;1.20;;
75016;SDS011;63577;39.766;2.720;2023-01-08T07:28:02;3.60;;;1.20;;
75016;SDS011;63577;39.766;2.720;2023-01-08T07:30:28;3.40;;;1.30;;
75016;SDS011;63577;39.766;2.720;2023-01-08T07:32:56;4.50;;;1.40;;
75016;SDS011;63577;39.766;2.720;2023-01-08T07:35:22;3.80;;;1.20;;
75016;SDS011;63577;39.766;2.720;2023-01-08T07:37:47;6.20;;;1.30;;
75016;SDS011;63577;39.766;2.720;2023-01-08T07:40:12;5.40;;;1.50;;
75016;SDS011;63577;39.766;2.720;2023-01-08T07:42:38;4.20;;;1.20;;
75016;SDS011;63577;39.766;2.720;2023-01-08T07:45:03;5.30;;;1.40;;
75016;SDS011;63577;39.766;2.720;2023-01-08T07:47:29;5.30;;;1.40;;
75016;SDS011;63577;39.766;2.720;2023-01-08T07:49:54;5.60;;;1.30;;
75016;SDS011;63577;39.766;2.720;2023-01-08T07:52:20;5.60;;;1.40;;
75016;SDS011;63577;39.766;2.720;2023-01-08T07:54:45;5.90;;;1.50;;
75016;SDS011;63577;39.766;2.720;2023-01-08T07:57:10;5.30;;;1.50;;
75016;SDS011;63577;39.766;2.720;2023-01-08T07:59:36;5.80;;;1.60;;
75016;SDS011;63577;39.766;2.720;2023-01-08T08:02:01;6.00;;;1.80;;
75016;SDS011;63577;39.766;2.720;2023-01-08T08:04:26;4.30;;;1.30;;
75016;SDS011;63577;39.766;2.720;2023-01-08T08:06:52;4.60;;;1.40;;
75016;SDS011;63577;39.766;2.720;2023-01-08T08:09:18;5.80;;;1.30;;
75016;SDS011;63577;39.766;2.720;2023-01-08T08:11:43;4.50;;;1.40;;
75016;SDS011;63577;39.766;2.720;2023-01-08T08:14:08;5.70;;;1.50;;
75016;SDS011;63577;39.766;2.720;2023-01-08T08:16:34;5.00;;;1.40;;
75016;SDS011;63577;39.766;2.720;2023-01-08T08:18:59;5.00;;;1.40;;
75016;SDS011;63577;39.766;2.720;2023-01-08T08:21:24;5.70;;;1.10;;
75016;SDS011;63577;39.766;2.720;2023-01-08T08:23:50;4.60;;;1.40;;
75016;SDS011;63577;39.766;2.720;2023-01-08T08:26:15;6.50;;;1.60;;
75016;SDS011;63577;39.766;2.720;2023-01-08T08:28:40;5.40;;;1.50;;
75016;SDS011;63577;39.766;2.720;2023-01-08T08:31:06;6.10;;;1.60;;
75016;SDS011;63577;39.766;2.720;2023-01-08T08:33:31;4.40;;;1.70;;
75016;SDS011;63577;39.766;2.720;2023-01-08T08:35:56;4.50;;;1.50;;
75016;SDS011;63577;39.766;2.720;2023-01-08T08:38:22;5.40;;;2.00;;
75016;SDS011;63577;39.766;2.720;2023-01-08T08:40:49;6.20;;;1.80;;
75016;SDS011;63577;39.766;2.720;2023-01-08T08:43:14;6.40;;;1.50;;
75016;SDS011;63577;39.766;2.720;2023-01-08T08:45:39;4.20;;;1.40;;
75016;SDS011;63577;39.766;2.720;2023-01-08T08:48:05;5.00;;;1.30;;
75016;SDS011;63577;39.766;2.720;2023-01-08T08:50:31;3.40;;;1.20;;
75016;SDS011;63577;39.766;2.720;2023-01-08T08:53:00;4.10;;;1.40;;
75016;SDS011;63577;39.766;2.720;2023-01-08T08:55:25;4.30;;;1.10;;
75016;SDS011;63577;39.766;2.720;2023-01-08T08:57:51;3.90;;;1.30;;
75016;SDS011;63577;39.766;2.720;2023-01-08T09:00:17;5.00;;;1.20;;
75016;SDS011;63577;39.766;2.720;2023-01-08T09:02:42;5.60;;;1.30;;
75016;SDS011;63577;39.766;2.720;2023-01-08T09:05:08;4.40;;;1.40;;
75016;SDS011;63577;39.766;2.720;2023-01-08T09:07:33;5.20;;;1.40;;
75016;SDS011;63577;39.766;2.720;2023-01-08T09:09:59;3.90;;;1.30;;
75016;SDS011;63577;39.766;2.720;2023-01-08T09:12:24;5.90;;;1.40;;
75016;SDS011;63577;39.766;2.720;2023-01-08T09:14:49;4.10;;;1.20;;
75016;SDS011;63577;39.766;2.720;2023-01-08T09:17:16;4.10;;;1.50;;
75016;SDS011;63577;39.766;2.720;2023-01-08T09:19:41;4.40;;;1.50;;
75016;SDS011;63577;39.766;2.720;2023-01-08T09:22:06;9.00;;;2.80;;
75016;SDS011;63577;39.766;2.720;2023-01-08T09:24:32;4.50;;;1.30;;
75016;SDS011;63577;39.766;2.720;2023-01-08T09:26:57;4.50;;;1.40;;
75016;SDS011;63577;39.766;2.720;2023-01-08T09:29:23;5.60;;;1.40;;
75016;SDS011;63577;39.766;2.720;2023-01-08T09:31:48;3.40;;;1.30;;
75016;SDS011;63577;39.766;2.720;2023-01-08T09:34:13;5.20;;;1.80;;
75016;SDS011;63577;39.766;2.720;2023-01-08T09:36:39;3.80;;;1.50;;
75016;SDS011;63577;39.766;2.720;2023-01-08T09:39:04;6.40;;;2.60;;
75016;SDS011;63577;39.766;2.720;2023-01-08T09:41:30;5.60;;;1.90;;
75016;SDS011;63577;39.766;2.720;2023-01-08T09:43:57;5.10;;;1.50;;
75016;SDS011;63577;39.766;2.720;2023-01-08T09:46:25;6.00;;;1.60;;
75016;SDS011;63577;39.766;2.720;2023-01-08T09:48:51;5.60;;;1.50;;
75016;SDS011;63577;39.766;2.720;2023-01-08T09:51:18;4.40;;;1.60;;
75016;SDS011;63577;39.766;2.720;2023-01-08T09:53:44;5.30;;;1.50;;
75016;SDS011;63577;39.766;2.720;2023-01-08T09:56:13;5.10;;;1.60;;
75016;SDS011;63577;39.766;2.720;2023-01-08T09:58:52;3.90;;;1.50;;
75016;SDS011;63577;39.766;2.720;2023-01-08T10:01:19;5.90;;;1.60;;
75016;SDS011;63577;39.766;2.720;2023-01-08T10:06:30;6.80;;;2.00;;
75016;SDS011;63577;39.766;2.720;2023-01-08T10:08:56;11.50;;;2.70;;
75016;SDS011;63577;39.766;2.720;2023-01-08T10:11:22;5.50;;;1.80;;
75016;SDS011;63577;39.766;2.720;2023-01-08T10:13:49;5.90;;;2.00;;
75016;SDS011;63577;39.766;2.720;2023-01-08T10:16:29;7.70;;;2.80;;
75016;SDS011;63577;39.766;2.720;2023-01-08T10:18:56;13.40;;;4.70;;
75016;SDS011;63577;39.766;2.720;2023-01-08T10:21:29;5.50;;;1.90;;
75016;SDS011;63577;39.766;2.720;2023-01-08T10:23:55;16.50;;;5.90;;
75016;SDS011;63577;39.766;2.720;2023-01-08T10:26:24;5.90;;;1.90;;
75016;SDS011;63577;39.766;2.720;2023-01-08T10:28:50;4.40;;;1.50;;
75016;SDS011;63577;39.766;2.720;2023-01-08T10:31:15;6.10;;;1.90;;
75016;SDS011;63577;39.766;2.720;2023-01-08T10:33:45;6.10;;;2.20;;
75016;SDS011;63577;39.766;2.720;2023-01-08T10:36:12;20.40;;;8.30;;
75016;SDS011;63577;39.766;2.720;2023-01-08T10:38:40;6.00;;;2.00;;
75016;SDS011;63577;39.766;2.720;2023-01-08T10:41:10;7.40;;;1.80;;
75016;SDS011;63577;39.766;2.720;2023-01-08T10:43:40;5.90;;;2.10;;
75016;SDS011;63577;39.766;2.720;2023-01-08T10:46:07;5.60;;;1.70;;
75016;SDS011;63577;39.766;2.720;2023-01-08T10:48:38;6.90;;;2.40;;
75016;SDS011;63577;39.766;2.720;2023-01-08T10:51:05;5.60;;;1.70;;
75016;SDS011;63577;39.766;2.720;2023-01-08T10:53:30;7.60;;;2.80;;
75016;SDS011;63577;39.766;2.720;2023-01-08T10:56:01;6.20;;;1.90;;
75016;SDS011;63577;39.766;2.720;2023-01-08T10:58:27;20.30;;;8.40;;
75016;SDS011;63577;39.766;2.720;2023-01-08T11:00:53;5.50;;;2.00;;
75016;SDS011;63577;39.766;2.720;2023-01-08T11:03:29;6.00;;;2.00;;
75016;SDS011;63577;39.766;2.720;2023-01-08T11:05:56;9.60;;;3.60;;
75016;SDS011;63577;39.766;2.720;2023-01-08T11:08:21;6.30;;;1.50;;
75016;SDS011;63577;39.766;2.720;2023-01-08T11:10:53;6.90;;;1.90;;
75016;SDS011;63577;39.766;2.720;2023-01-08T11:13:19;7.00;;;2.60;;
75016;SDS011;63577;39.766;2.720;2023-01-08T11:15:45;19.90;;;7.70;;
75016;SDS011;63577;39.766;2.720;2023-01-08T11:20:42;5.90;;;2.00;;
75016;SDS011;63577;39.766;2.720;2023-01-08T11:25:35;5.30;;;1.50;;
75016;SDS011;63577;39.766;2.720;2023-01-08T11:28:02;4.40;;;1.60;;
75016;SDS011;63577;39.766;2.720;2023-01-08T11:30:28;5.50;;;1.70;;
75016;SDS011;63577;39.766;2.720;2023-01-08T11:35:25;6.60;;;2.00;;
75016;SDS011;63577;39.766;2.720;2023-01-08T11:40:41;3.50;;;1.20;;
75016;SDS011;63577;39.766;2.720;2023-01-08T12:05:48;7.90;;;3.10;;
75016;SDS011;63577;39.766;2.720;2023-01-08T12:08:22;6.50;;;2.70;;
75016;SDS011;63577;39.766;2.720;2023-01-08T12:13:30;8.30;;;3.30;;
75016;SDS011;63577;39.766;2.720;2023-01-08T12:21:32;7.80;;;2.80;;
75016;SDS011;63577;39.766;2.720;2023-01-08T12:24:02;7.60;;;2.60;;
75016;SDS011;63577;39.766;2.720;2023-01-08T12:37:17;7.60;;;3.00;;
75016;SDS011;63577;39.766;2.720;2023-01-08T12:39:47;9.60;;;4.20;;
75016;SDS011;63577;39.766;2.720;2023-01-08T12:42:15;6.90;;;2.20;;
75016;SDS011;63577;39.766;2.720;2023-01-08T12:44:42;5.20;;;2.20;;
75016;SDS011;63577;39.766;2.720;2023-01-08T12:47:10;7.70;;;1.90;;
75016;SDS011;63577;39.766;2.720;2023-01-08T12:49:39;6.10;;;1.90;;
75016;SDS011;63577;39.766;2.720;2023-01-08T12:52:15;9.10;;;2.40;;
75016;SDS011;63577;39.766;2.720;2023-01-08T12:54:54;8.20;;;3.10;;
75016;SDS011;63577;39.766;2.720;2023-01-08T12:57:30;9.30;;;4.10;;
75016;SDS011;63577;39.766;2.720;2023-01-08T13:02:57;11.60;;;6.20;;
75016;SDS011;63577;39.766;2.720;2023-01-08T13:07:50;9.90;;;4.90;;
75016;SDS011;63577;39.766;2.720;2023-01-08T13:10:27;7.20;;;2.90;;
75016;SDS011;63577;39.766;2.720;2023-01-08T13:12:56;5.90;;;2.20;;
75016;SDS011;63577;39.766;2.720;2023-01-08T13:15:24;15.70;;;7.30;;
75016;SDS011;63577;39.766;2.720;2023-01-08T13:17:51;7.70;;;3.60;;
75016;SDS011;63577;39.766;2.720;2023-01-08T13:20:19;6.90;;;3.10;;
75016;SDS011;63577;39.766;2.720;2023-01-08T13:22:49;6.60;;;2.20;;
75016;SDS011;63577;39.766;2.720;2023-01-08T13:27:42;5.50;;;2.40;;
75016;SDS011;63577;39.766;2.720;2023-01-08T13:32:52;5.70;;;2.10;;
75016;SDS011;63577;39.766;2.720;2023-01-08T13:35:22;7.70;;;2.70;;
75016;SDS011;63577;39.766;2.720;2023-01-08T13:38:03;6.50;;;2.00;;
75016;SDS011;63577;39.766;2.720;2023-01-08T13:40:48;4.80;;;1.80;;
75016;SDS011;63577;39.766;2.720;2023-01-08T13:43:18;5.20;;;1.90;;
75016;SDS011;63577;39.766;2.720;2023-01-08T13:45:53;5.80;;;2.10;;
75016;SDS011;63577;39.766;2.720;2023-01-08T13:48:23;5.10;;;1.90;;
75016;SDS011;63577;39.766;2.720;2023-01-08T13:50:49;6.00;;;2.50;;
75016;SDS011;63577;39.766;2.720;2023-01-08T13:53:15;6.00;;;2.30;;
75016;SDS011;63577;39.766;2.720;2023-01-08T13:55:41;7.00;;;2.40;;
75016;SDS011;63577;39.766;2.720;2023-01-08T13:58:17;5.80;;;2.10;;
75016;SDS011;63577;39.766;2.720;2023-01-08T14:00:45;7.60;;;2.80;;
75016;SDS011;63577;39.766;2.720;2023-01-08T14:03:25;8.50;;;3.60;;
75016;SDS011;63577;39.766;2.720;2023-01-08T14:05:51;6.90;;;2.50;;
75016;SDS011;63577;39.766;2.720;2023-01-08T14:08:23;6.80;;;3.10;;
75016;SDS011;63577;39.766;2.720;2023-01-08T14:10:49;7.60;;;2.50;;
75016;SDS011;63577;39.766;2.720;2023-01-08T14:13:15;6.70;;;2.30;;
75016;SDS011;63577;39.766;2.720;2023-01-08T14:15:41;10.00;;;3.50;;
75016;SDS011;63577;39.766;2.720;2023-01-08T14:18:09;8.40;;;2.90;;
75016;SDS011;63577;39.766;2.720;2023-01-08T14:20:36;7.00;;;2.70;;
75016;SDS011;63577;39.766;2.720;2023-01-08T14:23:06;7.60;;;2.40;;
75016;SDS011;63577;39.766;2.720;2023-01-08T14:25:32;6.00;;;1.90;;
75016;SDS011;63577;39.766;2.720;2023-01-08T14:28:00;14.50;;;4.30;;
75016;SDS011;63577;39.766;2.720;2023-01-08T14:30:25;7.40;;;3.10;;
75016;SDS011;63577;39.766;2.720;2023-01-08T14:32:51;10.70;;;2.70;;
75016;SDS011;63577;39.766;2.720;2023-01-08T14:35:17;6.40;;;1.90;;
75016;SDS011;63577;39.766;2.720;2023-01-08T14:37:45;7.90;;;2.20;;
75016;SDS011;63577;39.766;2.720;2023-01-08T14:40:14;5.60;;;2.30;;
75016;SDS011;63577;39.766;2.720;2023-01-08T14:42:39;4.30;;;1.80;;
75016;SDS011;63577;39.766;2.720;2023-01-08T14:45:22;5.60;;;2.10;;
75016;SDS011;63577;39.766;2.720;2023-01-08T14:47:49;7.60;;;2.80;;
75016;SDS011;63577;39.766;2.720;2023-01-08T14:50:16;4.80;;;1.70;;
75016;SDS011;63577;39.766;2.720;2023-01-08T14:52:42;7.10;;;2.60;;
75016;SDS011;63577;39.766;2.720;2023-01-08T14:55:11;7.10;;;2.40;;
75016;SDS011;63577;39.766;2.720;2023-01-08T14:57:41;9.60;;;2.60;;
75016;SDS011;63577;39.766;2.720;2023-01-08T15:00:13;4.80;;;1.50;;
75016;SDS011;63577;39.766;2.720;2023-01-08T15:02:39;6.90;;;2.30;;
75016;SDS011;63577;39.766;2.720;2023-01-08T15:05:18;8.60;;;2.60;;
75016;SDS011;63577;39.766;2.720;2023-01-08T15:08:18;5.60;;;1.70;;
75016;SDS011;63577;39.766;2.720;2023-01-08T15:10:46;7.90;;;2.70;;
75016;SDS011;63577;39.766;2.720;2023-01-08T15:13:22;11.10;;;3.40;;
75016;SDS011;63577;39.766;2.720;2023-01-08T15:15:55;6.50;;;2.40;;
75016;SDS011;63577;39.766;2.720;2023-01-08T15:18:21;7.00;;;2.40;;
75016;SDS011;63577;39.766;2.720;2023-01-08T15:20:47;6.80;;;3.20;;
75016;SDS011;63577;39.766;2.720;2023-01-08T15:23:19;8.30;;;3.90;;
75016;SDS011;63577;39.766;2.720;2023-01-08T15:25:47;8.10;;;3.10;;
75016;SDS011;63577;39.766;2.720;2023-01-08T15:28:12;6.70;;;1.80;;
75016;SDS011;63577;39.766;2.720;2023-01-08T15:30:42;7.70;;;2.80;;
75016;SDS011;63577;39.766;2.720;2023-01-08T15:33:15;7.80;;;3.00;;
75016;SDS011;63577;39.766;2.720;2023-01-08T15:35:42;9.90;;;3.40;;
75016;SDS011;63577;39.766;2.720;2023-01-08T15:38:07;9.70;;;3.50;;
75016;SDS011;63577;39.766;2.720;2023-01-08T15:40:33;12.90;;;5.60;;
75016;SDS011;63577;39.766;2.720;2023-01-08T15:42:58;14.10;;;6.60;;
75016;SDS011;63577;39.766;2.720;2023-01-08T15:46:47;12.40;;;4.90;;
75016;SDS011;63577;39.766;2.720;2023-01-08T15:49:12;14.00;;;4.50;;
75016;SDS011;63577;39.766;2.720;2023-01-08T15:51:40;8.80;;;3.50;;
75016;SDS011;63577;39.766;2.720;2023-01-08T15:54:08;11.80;;;4.10;;
75016;SDS011;63577;39.766;2.720;2023-01-08T15:56:34;14.20;;;3.30;;
75016;SDS011;63577;39.766;2.720;2023-01-08T15:58:59;12.90;;;4.50;;
75016;SDS011;63577;39.766;2.720;2023-01-08T16:01:24;12.00;;;4.50;;
75016;SDS011;63577;39.766;2.720;2023-01-08T16:03:50;9.50;;;3.10;;
75016;SDS011;63577;39.766;2.720;2023-01-08T16:06:16;12.20;;;4.90;;
75016;SDS011;63577;39.766;2.720;2023-01-08T16:08:41;13.40;;;5.30;;
75016;SDS011;63577;39.766;2.720;2023-01-08T16:11:10;15.50;;;5.00;;